Time;durP1;ratioP1;P1;durP2;ratioP2;P2;SDS_P1;SDS_P2;PMS_P1;PMS_P2;Temp;Humidity;BMP_temperature;BMP_pressure;BME280_temperature;BME280_humidity;BME280_pressure;Samples;Min_cycle;Max_cycle;Signal;HPM_P1;HPM_P2
2024/02/04 00:02:14;;;;;;;1.00;0.90;;;7.20;99.90;;;;;;5044342;28;20219;-77
2024/02/04 00:04:40;;;;;;;1.05;0.85;;;7.20;99.90;;;;;;5046152;28;20676;-77
2024/02/04 00:07:07;;;;;;;0.80;0.75;;;7.20;99.90;;;;;;5053136;28;20229;-77
2024/02/04 00:09:34;;;;;;;1.00;0.70;;;7.20;99.90;;;;;;5045795;28;20253;-77
2024/02/04 00:12:03;;;;;;;1.00;0.90;;;7.20;99.90;;;;;;5043451;28;20216;-77
2024/02/04 00:14:30;;;;;;;1.02;0.75;;;7.20;99.90;;;;;;5046183;28;20226;-76
2024/02/04 00:16:58;;;;;;;0.70;0.70;;;7.10;99.90;;;;;;5043750;28;20207;-77
2024/02/04 00:19:25;;;;;;;0.70;0.60;;;7.10;99.90;;;;;;5050112;28;20364;-77
2024/02/04 00:21:52;;;;;;;1.20;1.10;;;7.10;99.90;;;;;;5059764;28;20210;-77
2024/02/04 00:24:19;;;;;;;0.98;0.68;;;7.20;99.90;;;;;;5060701;28;20208;-77
2024/02/04 00:26:46;;;;;;;0.80;0.70;;;7.10;99.90;;;;;;5056879;28;20215;-77
2024/02/04 00:29:13;;;;;;;1.20;1.10;;;7.10;99.90;;;;;;5044230;28;20228;-76
2024/02/04 00:31:39;;;;;;;0.70;0.70;;;7.10;99.90;;;;;;5045100;28;20205;-77
2024/02/04 00:34:08;;;;;;;0.93;0.70;;;7.20;99.90;;;;;;5043797;28;20204;-76
2024/02/04 00:36:34;;;;;;;1.00;0.90;;;7.10;99.90;;;;;;5045796;28;20556;-76
2024/02/04 00:39:01;;;;;;;0.85;0.73;;;7.10;99.90;;;;;;5042649;28;20235;-77
2024/02/04 00:41:28;;;;;;;0.70;0.60;;;7.10;99.90;;;;;;5046083;28;20687;-76
2024/02/04 00:43:55;;;;;;;0.80;0.70;;;7.10;99.90;;;;;;5044433;28;20218;-76
2024/02/04 00:46:21;;;;;;;1.30;0.80;;;7.10;99.90;;;;;;5045606;28;20211;-76
2024/02/04 00:48:48;;;;;;;0.70;0.70;;;7.10;99.90;;;;;;5045667;28;20688;-76
2024/02/04 00:51:16;;;;;;;0.80;0.70;;;7.10;99.90;;;;;;5045570;28;20205;-76
2024/02/04 00:53:43;;;;;;;1.05;0.80;;;7.00;99.90;;;;;;5047439;28;20210;-76
2024/02/04 00:56:11;;;;;;;1.00;0.80;;;7.00;99.90;;;;;;5044226;28;20606;-77
2024/02/04 00:58:37;;;;;;;0.70;0.65;;;6.90;99.90;;;;;;5046185;28;20705;-77
2024/02/04 01:01:05;;;;;;;0.80;0.70;;;6.90;99.90;;;;;;5044547;28;20218;-76
2024/02/04 01:03:32;;;;;;;1.10;0.82;;;6.80;99.90;;;;;;5046329;28;20226;-76
2024/02/04 01:05:59;;;;;;;0.70;0.60;;;6.90;99.90;;;;;;5044324;28;20218;-76
2024/02/04 01:08:27;;;;;;;0.70;0.65;;;6.80;99.90;;;;;;5046505;28;20227;-77
2024/02/04 01:10:55;;;;;;;0.80;0.70;;;6.90;99.90;;;;;;5045393;28;20290;-77
2024/02/04 01:13:21;;;;;;;0.80;0.70;;;6.80;99.90;;;;;;5046336;28;20595;-77
2024/02/04 01:15:48;;;;;;;0.90;0.70;;;6.80;99.90;;;;;;5046002;28;20217;-76
2024/02/04 01:18:15;;;;;;;0.90;0.70;;;6.80;99.90;;;;;;5046470;28;20620;-77
2024/02/04 01:20:42;;;;;;;0.70;0.68;;;6.80;99.90;;;;;;5046521;28;20214;-77
2024/02/04 01:23:09;;;;;;;0.80;0.70;;;6.80;99.90;;;;;;5045003;28;20663;-77
2024/02/04 01:25:37;;;;;;;1.38;0.90;;;6.80;99.90;;;;;;5046421;28;20257;-77
2024/02/04 01:28:04;;;;;;;0.93;0.80;;;6.70;99.90;;;;;;5044824;28;20721;-77
2024/02/04 01:30:31;;;;;;;0.82;0.73;;;6.70;99.90;;;;;;5046121;28;20212;-77
2024/02/04 01:32:58;;;;;;;0.70;0.68;;;6.70;99.90;;;;;;5045054;28;20213;-76
2024/02/04 01:35:24;;;;;;;0.80;0.70;;;6.70;99.90;;;;;;5039314;28;20218;-77
2024/02/04 01:37:51;;;;;;;0.88;0.70;;;6.70;99.90;;;;;;5046063;28;20232;-77
2024/02/04 01:40:18;;;;;;;0.90;0.70;;;6.60;99.90;;;;;;5045574;28;20220;-77
2024/02/04 01:42:46;;;;;;;0.70;0.60;;;6.70;99.90;;;;;;5046523;28;20213;-77
2024/02/04 01:45:13;;;;;;;0.70;0.65;;;6.70;99.90;;;;;;5044893;28;20216;-77
2024/02/04 01:47:40;;;;;;;1.05;0.80;;;6.60;99.90;;;;;;5045752;28;20234;-76
2024/02/04 01:50:07;;;;;;;0.70;0.60;;;6.60;99.90;;;;;;5045169;28;20704;-77
2024/02/04 01:52:37;;;;;;;0.70;0.68;;;6.60;99.90;;;;;;5046467;28;20215;-77
2024/02/04 01:55:05;;;;;;;0.80;0.70;;;6.60;99.90;;;;;;5045232;28;20215;-76
2024/02/04 01:57:32;;;;;;;0.80;0.70;;;6.60;99.90;;;;;;5046219;28;20203;-77
2024/02/04 02:00:00;;;;;;;0.80;0.70;;;6.50;99.90;;;;;;5047400;28;20209;-77
2024/02/04 02:02:27;;;;;;;0.93;0.82;;;6.50;99.90;;;;;;5049288;28;20294;-77
2024/02/04 02:04:54;;;;;;;0.77;0.70;;;6.50;99.90;;;;;;5050002;28;20219;-77
2024/02/04 02:07:21;;;;;;;0.70;0.70;;;6.60;99.90;;;;;;5049049;28;20213;-76
2024/02/04 02:09:48;;;;;;;0.85;0.70;;;6.60;99.90;;;;;;5049229;28;20226;-77
2024/02/04 02:12:20;;;;;;;0.70;0.60;;;6.50;99.90;;;;;;5049236;28;20220;-76
2024/02/04 02:14:53;;;;;;;0.80;0.70;;;6.60;99.90;;;;;;5050518;28;20266;-76
2024/02/04 02:17:30;;;;;;;0.80;0.70;;;6.60;99.90;;;;;;5050000;28;20216;-76
2024/02/04 02:20:04;;;;;;;0.85;0.73;;;6.60;99.90;;;;;;5050025;28;20281;-76
2024/02/04 02:22:38;;;;;;;0.80;0.70;;;6.70;99.90;;;;;;5043778;28;20208;-76
2024/02/04 02:25:08;;;;;;;0.80;0.80;;;6.60;99.90;;;;;;5050226;28;20208;-76
2024/02/04 02:27:35;;;;;;;1.33;0.90;;;6.60;99.90;;;;;;5050104;28;20211;-76
2024/02/04 02:30:02;;;;;;;0.70;0.70;;;6.70;99.90;;;;;;5050229;28;20218;-77
2024/02/04 02:32:29;;;;;;;0.70;0.60;;;6.70;99.90;;;;;;5050443;28;20269;-77
2024/02/04 02:34:56;;;;;;;0.90;0.80;;;6.70;99.90;;;;;;5050598;28;20698;-77
2024/02/04 02:37:28;;;;;;;1.15;0.75;;;6.70;99.90;;;;;;5050286;28;20211;-76
2024/02/04 02:40:00;;;;;;;2.55;1.35;;;6.70;99.90;;;;;;5051213;28;20208;-77
2024/02/04 02:42:29;;;;;;;0.85;0.70;;;6.70;99.90;;;;;;5050822;28;20224;-76
2024/02/04 02:44:57;;;;;;;0.95;0.80;;;6.70;99.90;;;;;;5050961;28;20211;-77
2024/02/04 02:47:26;;;;;;;0.80;0.60;;;6.70;99.90;;;;;;5038758;28;20689;-76
2024/02/04 02:49:54;;;;;;;0.80;0.70;;;6.70;99.90;;;;;;5030977;28;20608;-77
2024/02/04 02:52:21;;;;;;;3.00;0.98;;;6.70;99.90;;;;;;5030716;28;20217;-76
2024/02/04 02:54:48;;;;;;;0.80;0.70;;;6.70;99.90;;;;;;5031098;28;20226;-76
2024/02/04 02:57:14;;;;;;;0.77;0.68;;;6.70;99.90;;;;;;5030541;28;20678;-76
2024/02/04 02:59:43;;;;;;;1.13;0.88;;;6.70;99.90;;;;;;5028590;28;20246;-77
2024/02/04 03:02:11;;;;;;;2.75;0.90;;;6.70;99.90;;;;;;5030473;28;20221;-76
2024/02/04 03:04:37;;;;;;;2.25;0.85;;;6.70;99.90;;;;;;5035375;28;20207;-76
2024/02/04 03:07:06;;;;;;;0.98;0.75;;;6.70;99.90;;;;;;5049093;28;20598;-76
2024/02/04 03:09:33;;;;;;;0.90;0.70;;;6.80;99.90;;;;;;5041567;28;20233;-76
2024/02/04 03:11:59;;;;;;;0.90;0.75;;;6.80;99.90;;;;;;5035423;28;20222;-77
2024/02/04 03:14:26;;;;;;;0.90;0.80;;;6.80;99.90;;;;;;5043000;28;20716;-77
2024/02/04 03:16:54;;;;;;;1.45;0.70;;;6.70;99.90;;;;;;5035203;28;20215;-76
2024/02/04 03:19:21;;;;;;;0.70;0.60;;;6.70;99.90;;;;;;5038218;28;20220;-76
2024/02/04 03:21:48;;;;;;;0.80;0.80;;;6.70;99.90;;;;;;5040279;28;20207;-77
2024/02/04 03:24:15;;;;;;;0.80;0.70;;;6.70;99.90;;;;;;5043384;28;20585;-76
2024/02/04 03:26:41;;;;;;;0.80;0.70;;;6.70;99.90;;;;;;5043251;28;20212;-76
2024/02/04 03:29:08;;;;;;;1.52;0.90;;;6.70;99.90;;;;;;5035352;28;20223;-76
2024/02/04 03:31:35;;;;;;;1.80;0.80;;;6.70;99.90;;;;;;5036062;28;20230;-76
2024/02/04 03:34:03;;;;;;;0.70;0.60;;;6.70;99.90;;;;;;5039594;28;20208;-76
2024/02/04 03:36:32;;;;;;;1.10;0.80;;;6.70;99.90;;;;;;5039384;28;20207;-77
2024/02/04 03:38:59;;;;;;;0.80;0.70;;;6.70;99.90;;;;;;5039182;28;20221;-77
2024/02/04 03:41:26;;;;;;;0.82;0.70;;;6.70;99.90;;;;;;5038014;28;20205;-77
2024/02/04 03:43:52;;;;;;;0.90;0.70;;;6.80;99.90;;;;;;5035546;28;20200;-76
2024/02/04 03:46:19;;;;;;;1.15;0.90;;;6.80;99.90;;;;;;5035642;28;20202;-76
2024/02/04 03:48:46;;;;;;;0.80;0.70;;;6.80;99.90;;;;;;5035457;28;20225;-77
2024/02/04 03:51:18;;;;;;;0.90;0.70;;;6.80;99.90;;;;;;5036101;28;20230;-76
2024/02/04 03:53:44;;;;;;;1.05;0.90;;;6.80;99.90;;;;;;5035693;28;20931;-77
2024/02/04 03:56:11;;;;;;;1.00;0.90;;;6.80;99.90;;;;;;5035813;28;20216;-76
2024/02/04 03:58:38;;;;;;;0.80;0.70;;;6.80;99.90;;;;;;5035720;28;20220;-77
2024/02/04 04:01:05;;;;;;;0.80;0.70;;;6.90;99.90;;;;;;5036348;28;20212;-76
2024/02/04 04:03:31;;;;;;;0.80;0.70;;;6.80;99.90;;;;;;5035429;28;20199;-77
2024/02/04 04:05:58;;;;;;;0.90;0.75;;;6.90;99.90;;;;;;5041257;28;20207;-76
2024/02/04 04:08:26;;;;;;;0.98;0.82;;;6.90;99.90;;;;;;5050089;28;20606;-76
2024/02/04 04:10:53;;;;;;;0.70;0.70;;;6.90;99.90;;;;;;5035588;28;20214;-76
2024/02/04 04:13:19;;;;;;;0.80;0.70;;;6.90;99.90;;;;;;5036196;28;20213;-77
2024/02/04 04:15:46;;;;;;;0.90;0.80;;;6.90;99.90;;;;;;5035663;28;20201;-76
2024/02/04 04:18:13;;;;;;;0.90;0.80;;;6.90;99.90;;;;;;5038402;28;20221;-76
2024/02/04 04:20:40;;;;;;;0.90;0.80;;;6.90;99.90;;;;;;5041735;28;20209;-76
2024/02/04 04:23:06;;;;;;;1.00;0.80;;;6.90;99.90;;;;;;5036986;28;20588;-76
2024/02/04 04:25:34;;;;;;;0.80;0.80;;;6.90;99.90;;;;;;5035496;28;20217;-77
2024/02/04 04:28:01;;;;;;;1.20;0.90;;;7.00;99.90;;;;;;5036295;28;20229;-76
2024/02/04 04:30:28;;;;;;;0.90;0.80;;;6.90;99.90;;;;;;5035938;28;20212;-76
2024/02/04 04:32:55;;;;;;;0.85;0.73;;;6.90;99.90;;;;;;5035508;28;20216;-76
2024/02/04 04:35:21;;;;;;;0.88;0.80;;;6.90;99.90;;;;;;5044537;28;20214;-77
2024/02/04 04:37:48;;;;;;;0.90;0.80;;;6.90;99.90;;;;;;5035842;28;20236;-76
2024/02/04 04:40:15;;;;;;;0.80;0.70;;;6.90;99.90;;;;;;5036876;28;20212;-76
2024/02/04 04:42:43;;;;;;;0.90;0.80;;;6.90;99.90;;;;;;5035695;28;20209;-76
2024/02/04 04:45:10;;;;;;;0.70;0.60;;;6.90;99.90;;;;;;5036804;28;20216;-76
2024/02/04 04:47:37;;;;;;;0.70;0.60;;;6.80;99.90;;;;;;5035342;28;20875;-76
2024/02/04 04:50:06;;;;;;;0.90;0.80;;;6.80;99.90;;;;;;5036403;28;20709;-76
2024/02/04 04:52:33;;;;;;;0.70;0.60;;;6.90;99.90;;;;;;5035733;28;20629;-77
2024/02/04 04:54:59;;;;;;;0.70;0.60;;;6.90;99.90;;;;;;5036128;28;20205;-76
2024/02/04 04:57:26;;;;;;;0.80;0.70;;;6.90;99.90;;;;;;5036184;28;20211;-76
2024/02/04 04:59:54;;;;;;;0.80;0.70;;;6.80;99.90;;;;;;5035889;28;20258;-76
2024/02/04 05:02:21;;;;;;;0.90;0.80;;;6.80;99.90;;;;;;5043735;28;20596;-76
2024/02/04 05:04:48;;;;;;;1.00;0.70;;;6.80;99.90;;;;;;5036027;28;20202;-76
2024/02/04 05:07:15;;;;;;;0.90;0.70;;;6.80;99.90;;;;;;5037034;28;20262;-76
2024/02/04 05:09:41;;;;;;;0.75;0.65;;;6.80;99.90;;;;;;5035533;28;20231;-76
2024/02/04 05:12:10;;;;;;;0.80;0.70;;;6.70;99.90;;;;;;5037317;28;20211;-76
2024/02/04 05:14:37;;;;;;;0.80;0.70;;;6.60;99.90;;;;;;5046298;28;20207;-76
2024/02/04 05:17:06;;;;;;;1.33;0.80;;;6.60;99.90;;;;;;5044366;28;20212;-76
2024/02/04 05:19:32;;;;;;;0.70;0.70;;;6.50;99.90;;;;;;5037484;28;20318;-76
2024/02/04 05:21:59;;;;;;;0.80;0.60;;;6.50;99.90;;;;;;5042178;28;20207;-76
2024/02/04 05:24:26;;;;;;;0.70;0.60;;;6.40;99.90;;;;;;5037348;28;20218;-76
2024/02/04 05:26:52;;;;;;;0.80;0.70;;;6.40;99.90;;;;;;5035363;28;20605;-76
2024/02/04 05:29:19;;;;;;;0.70;0.60;;;6.40;99.90;;;;;;5037636;28;20229;-76
2024/02/04 05:31:46;;;;;;;0.85;0.70;;;6.40;99.90;;;;;;5036447;28;20298;-76
2024/02/04 05:34:14;;;;;;;0.80;0.70;;;6.40;99.90;;;;;;5037967;28;20207;-76
2024/02/04 05:36:42;;;;;;;0.70;0.60;;;6.40;99.90;;;;;;5044849;28;20206;-76
2024/02/04 05:39:12;;;;;;;0.70;0.60;;;6.50;99.90;;;;;;5045787;28;20325;-76
2024/02/04 05:41:39;;;;;;;0.73;0.70;;;6.50;99.90;;;;;;5036251;28;20207;-77
2024/02/04 05:44:05;;;;;;;0.80;0.70;;;6.50;99.90;;;;;;5037633;28;20964;-77
2024/02/04 05:46:32;;;;;;;0.82;0.75;;;6.50;99.90;;;;;;5037462;28;20257;-77
2024/02/04 05:48:59;;;;;;;1.02;0.70;;;6.50;99.90;;;;;;5036532;28;20231;-77
2024/02/04 05:51:27;;;;;;;1.48;0.70;;;6.50;99.90;;;;;;5038265;28;20206;-77
2024/02/04 05:53:54;;;;;;;0.70;0.60;;;6.60;99.90;;;;;;5036718;28;20207;-77
2024/02/04 05:56:21;;;;;;;0.80;0.70;;;6.60;99.90;;;;;;5038368;28;20236;-77
2024/02/04 05:58:48;;;;;;;0.80;0.70;;;6.60;99.90;;;;;;5036548;28;20231;-77
2024/02/04 06:01:17;;;;;;;0.80;0.70;;;6.60;99.90;;;;;;5038787;28;20568;-77
2024/02/04 06:03:44;;;;;;;0.80;0.80;;;6.60;99.90;;;;;;5036801;28;20205;-77
2024/02/04 06:06:14;;;;;;;0.80;0.70;;;6.60;99.90;;;;;;5038097;28;20210;-77
2024/02/04 06:08:43;;;;;;;0.85;0.60;;;6.60;99.90;;;;;;5036419;28;20258;-77
2024/02/04 06:11:10;;;;;;;0.70;0.60;;;6.60;99.90;;;;;;5039149;28;20199;-77
2024/02/04 06:13:37;;;;;;;0.80;0.80;;;6.60;99.90;;;;;;5038723;28;20213;-77
2024/02/04 06:16:04;;;;;;;1.15;0.80;;;6.60;99.90;;;;;;5038335;28;20205;-78
2024/02/04 06:18:31;;;;;;;0.70;0.70;;;6.50;99.90;;;;;;5039608;28;20257;-78
2024/02/04 06:20:57;;;;;;;0.70;0.70;;;6.50;99.90;;;;;;5038461;28;20687;-78
2024/02/04 06:23:24;;;;;;;1.08;0.85;;;6.50;99.90;;;;;;5038371;28;20213;-78
2024/02/04 06:25:52;;;;;;;0.85;0.80;;;6.50;99.90;;;;;;5038152;28;20201;-78
2024/02/04 06:28:19;;;;;;;0.70;0.60;;;6.50;99.90;;;;;;5041117;28;20240;-78
2024/02/04 06:30:46;;;;;;;0.70;0.65;;;6.40;99.90;;;;;;5053495;28;20223;-78
2024/02/04 06:33:12;;;;;;;1.10;0.90;;;6.40;99.90;;;;;;5041620;28;20200;-77
2024/02/04 06:35:39;;;;;;;0.80;0.70;;;6.40;99.90;;;;;;5043478;28;20203;-77
2024/02/04 06:38:06;;;;;;;0.70;0.60;;;6.40;99.90;;;;;;5038633;28;20228;-78
2024/02/04 06:40:33;;;;;;;0.82;0.70;;;6.40;99.90;;;;;;5039899;28;20203;-78
2024/02/04 06:43:01;;;;;;;0.70;0.60;;;6.40;99.90;;;;;;5038818;28;20219;-78
2024/02/04 06:45:27;;;;;;;0.90;0.80;;;6.40;99.90;;;;;;5051431;28;20213;-78
2024/02/04 06:47:55;;;;;;;0.75;0.68;;;6.40;99.90;;;;;;5038886;28;20226;-78
2024/02/04 06:50:21;;;;;;;0.80;0.70;;;6.40;99.90;;;;;;5041124;28;20601;-78
2024/02/04 06:52:48;;;;;;;0.70;0.60;;;6.50;99.90;;;;;;5038454;28;20219;-78
2024/02/04 06:55:15;;;;;;;0.70;0.60;;;6.50;99.90;;;;;;5049428;28;20679;-78
2024/02/04 06:57:42;;;;;;;0.77;0.73;;;6.50;99.90;;;;;;5043608;28;20205;-78
2024/02/04 07:00:11;;;;;;;1.00;0.70;;;6.50;99.90;;;;;;5039983;28;20590;-78
2024/02/04 07:02:38;;;;;;;0.90;0.70;;;6.50;99.90;;;;;;5040032;28;20288;-78
2024/02/04 07:05:05;;;;;;;0.80;0.70;;;6.60;99.90;;;;;;5044948;28;20202;-78
2024/02/04 07:07:32;;;;;;;1.00;0.80;;;6.50;99.90;;;;;;5040903;28;20208;-78
2024/02/04 07:10:00;;;;;;;0.80;0.70;;;6.60;99.90;;;;;;5040124;28;20226;-78
2024/02/04 07:12:26;;;;;;;0.77;0.70;;;6.60;99.90;;;;;;5041545;28;20207;-78
2024/02/04 07:14:54;;;;;;;0.90;0.70;;;6.60;99.90;;;;;;5040009;28;20198;-78
2024/02/04 07:17:22;;;;;;;0.85;0.70;;;6.70;99.90;;;;;;5042267;28;20224;-78
2024/02/04 07:19:48;;;;;;;1.10;0.90;;;6.60;99.90;;;;;;5038803;28;20246;-78
2024/02/04 07:22:15;;;;;;;0.98;0.70;;;6.60;99.90;;;;;;5041276;28;20217;-78
2024/02/04 07:24:42;;;;;;;0.70;0.70;;;6.60;99.90;;;;;;5039505;28;20207;-78
2024/02/04 07:27:09;;;;;;;0.80;0.70;;;6.60;99.90;;;;;;5054425;28;20206;-77
2024/02/04 07:29:35;;;;;;;0.85;0.70;;;6.60;99.90;;;;;;5051845;28;20230;-77
2024/02/04 07:32:04;;;;;;;0.80;0.70;;;6.70;99.90;;;;;;5045330;28;20668;-78
2024/02/04 07:34:32;;;;;;;0.90;0.80;;;6.60;99.90;;;;;;5051990;28;20203;-78
2024/02/04 07:36:58;;;;;;;1.50;0.90;;;6.70;99.90;;;;;;5043384;28;20230;-78
2024/02/04 07:39:25;;;;;;;1.67;0.90;;;6.70;99.90;;;;;;5046455;28;20231;-78
2024/02/04 07:41:53;;;;;;;0.77;0.73;;;6.70;99.90;;;;;;5050431;28;20212;-78
2024/02/04 07:44:20;;;;;;;0.80;0.70;;;6.70;99.90;;;;;;5049408;28;20249;-78
2024/02/04 07:46:47;;;;;;;1.08;0.80;;;6.70;99.90;;;;;;5046033;28;20672;-77
2024/02/04 07:49:13;;;;;;;0.85;0.80;;;6.80;99.90;;;;;;5050125;28;20233;-77
2024/02/04 07:51:42;;;;;;;0.80;0.70;;;6.80;99.90;;;;;;5043194;28;20202;-77
2024/02/04 07:54:08;;;;;;;1.00;0.80;;;6.90;99.90;;;;;;5043507;28;20230;-77
2024/02/04 07:56:35;;;;;;;0.80;0.70;;;7.00;99.90;;;;;;5044948;28;20207;-77
2024/02/04 07:59:03;;;;;;;1.00;0.80;;;7.00;99.90;;;;;;5045306;28;20220;-77
2024/02/04 08:01:30;;;;;;;0.90;0.70;;;7.10;99.90;;;;;;5044856;28;20673;-77
2024/02/04 08:03:57;;;;;;;0.82;0.82;;;7.10;99.90;;;;;;5042026;28;20668;-77
2024/02/04 08:06:23;;;;;;;0.80;0.70;;;7.10;99.90;;;;;;5040714;28;20207;-77
2024/02/04 08:08:51;;;;;;;1.00;0.80;;;7.10;99.90;;;;;;5049181;28;20618;-77
2024/02/04 08:11:19;;;;;;;1.17;0.90;;;7.10;99.90;;;;;;5049416;28;20230;-77
2024/02/04 08:13:45;;;;;;;0.90;0.70;;;7.20;99.90;;;;;;5043119;28;20210;-77
2024/02/04 08:16:13;;;;;;;1.00;0.80;;;7.20;99.90;;;;;;5043752;28;20204;-77
2024/02/04 08:18:40;;;;;;;1.00;0.90;;;7.10;99.90;;;;;;5044516;28;20229;-77
2024/02/04 08:21:07;;;;;;;0.90;0.80;;;7.30;99.90;;;;;;5043570;28;20450;-77
2024/02/04 08:23:34;;;;;;;0.85;0.70;;;7.30;99.90;;;;;;5045681;28;20207;-77
2024/02/04 08:26:02;;;;;;;1.02;0.80;;;7.40;99.90;;;;;;5046138;28;20214;-77
2024/02/04 08:28:29;;;;;;;0.80;0.70;;;7.50;99.90;;;;;;5046111;28;20230;-77
2024/02/04 08:30:56;;;;;;;0.80;0.70;;;7.50;99.90;;;;;;5042260;28;20245;-76
2024/02/04 08:33:22;;;;;;;0.90;0.80;;;7.50;99.90;;;;;;5045801;28;20233;-77
2024/02/04 08:35:49;;;;;;;0.80;0.70;;;7.60;99.90;;;;;;5042636;28;20583;-77
2024/02/04 08:38:16;;;;;;;0.80;0.70;;;7.70;99.90;;;;;;5046993;28;20227;-77
2024/02/04 08:40:43;;;;;;;0.95;0.85;;;7.90;99.90;;;;;;5043895;28;20224;-77
2024/02/04 08:43:11;;;;;;;0.90;0.77;;;8.00;99.90;;;;;;5043963;28;20720;-77
2024/02/04 08:45:37;;;;;;;1.10;0.88;;;8.20;99.90;;;;;;5044625;28;20382;-77
2024/02/04 08:48:05;;;;;;;1.00;0.80;;;8.20;99.90;;;;;;5049007;28;20231;-77
2024/02/04 08:50:32;;;;;;;0.85;0.68;;;8.20;99.90;;;;;;5045157;28;20250;-77
2024/02/04 08:52:59;;;;;;;0.95;0.80;;;8.20;99.90;;;;;;5044151;28;20209;-77
2024/02/04 08:55:26;;;;;;;0.80;0.70;;;8.20;99.90;;;;;;5045595;28;20216;-77
2024/02/04 08:57:53;;;;;;;1.17;0.80;;;8.30;99.90;;;;;;5041066;28;20785;-77
2024/02/04 09:00:22;;;;;;;0.90;0.80;;;8.30;99.90;;;;;;5044794;28;20258;-77
2024/02/04 09:02:49;;;;;;;0.90;0.70;;;8.30;99.90;;;;;;5042595;28;20208;-77
2024/02/04 09:05:16;;;;;;;1.13;0.90;;;8.30;99.90;;;;;;5050019;28;20223;-77
2024/02/04 09:07:43;;;;;;;0.80;0.70;;;8.30;99.90;;;;;;5048772;28;20211;-79
2024/02/04 09:10:10;;;;;;;0.80;0.80;;;8.20;99.90;;;;;;5040723;28;20224;-78
2024/02/04 09:12:37;;;;;;;0.80;0.70;;;8.20;99.90;;;;;;5045372;28;20296;-78
2024/02/04 09:15:04;;;;;;;0.90;0.80;;;8.30;99.90;;;;;;5043979;28;20682;-78
2024/02/04 09:17:33;;;;;;;0.70;0.70;;;8.30;99.90;;;;;;5045553;28;20673;-78
2024/02/04 09:19:59;;;;;;;1.02;0.90;;;8.30;99.90;;;;;;5051210;28;20239;-78
2024/02/04 09:22:26;;;;;;;0.70;0.60;;;8.30;99.90;;;;;;5059056;28;20795;-78
2024/02/04 09:24:53;;;;;;;0.70;0.70;;;8.30;99.90;;;;;;5044539;28;20213;-78
2024/02/04 09:27:19;;;;;;;0.80;0.70;;;8.40;99.90;;;;;;5046177;28;20211;-78
2024/02/04 09:29:46;;;;;;;1.00;0.70;;;8.40;99.90;;;;;;5045182;28;20232;-78
2024/02/04 09:32:13;;;;;;;0.77;0.70;;;8.50;99.90;;;;;;5044610;28;20213;-76
2024/02/04 09:34:41;;;;;;;0.93;0.70;;;8.60;99.90;;;;;;5045232;28;20288;-77
2024/02/04 09:37:08;;;;;;;1.25;0.80;;;8.60;99.90;;;;;;5043047;28;20213;-77
2024/02/04 09:39:34;;;;;;;0.95;0.77;;;8.70;99.90;;;;;;5048815;28;20251;-77
2024/02/04 09:42:02;;;;;;;1.25;0.60;;;8.80;99.90;;;;;;5042502;28;20206;-77
2024/02/04 09:44:32;;;;;;;0.80;0.70;;;9.00;99.90;;;;;;5046149;28;20679;-76
2024/02/04 09:47:00;;;;;;;0.80;0.60;;;9.00;99.90;;;;;;5044017;28;20603;-76
2024/02/04 09:49:28;;;;;;;0.80;0.60;;;9.30;99.90;;;;;;5046386;28;20225;-75
2024/02/04 09:51:59;;;;;;;1.23;0.70;;;11.10;99.90;;;;;;5043226;28;20263;-75
2024/02/04 09:54:28;;;;;;;1.00;0.70;;;13.20;99.90;;;;;;5040908;28;20692;-75
2024/02/04 09:56:55;;;;;;;0.80;0.70;;;14.40;99.90;;;;;;5043251;28;20227;-76
2024/02/04 09:59:22;;;;;;;0.80;0.70;;;15.30;99.90;;;;;;5045523;28;20222;-76
2024/02/04 10:01:49;;;;;;;1.17;0.70;;;16.00;99.90;;;;;;5043931;28;20459;-76
2024/02/04 10:04:16;;;;;;;0.80;0.60;;;16.20;99.90;;;;;;5045177;28;20467;-76
2024/02/04 10:06:43;;;;;;;0.80;0.70;;;15.70;99.90;;;;;;5047926;28;20469;-76
2024/02/04 10:09:11;;;;;;;0.80;0.60;;;14.40;99.90;;;;;;5062617;28;20490;-76
2024/02/04 10:11:38;;;;;;;0.90;0.70;;;13.40;99.90;;;;;;5060051;28;20877;-76
2024/02/04 10:14:06;;;;;;;0.82;0.70;;;12.80;99.90;;;;;;5043709;28;20464;-77
2024/02/04 10:16:35;;;;;;;0.90;0.80;;;12.40;99.90;;;;;;5046137;28;20208;-76
2024/02/04 10:19:03;;;;;;;1.00;0.70;;;13.10;99.90;;;;;;5043884;28;20323;-76
2024/02/04 10:21:30;;;;;;;0.80;0.60;;;14.70;99.90;;;;;;5048735;28;20478;-76
2024/02/04 10:23:58;;;;;;;0.80;0.70;;;15.90;99.90;;;;;;5050339;28;20485;-77
2024/02/04 10:26:34;;;;;;;0.80;0.60;;;16.10;99.90;;;;;;5040524;28;20550;-77
2024/02/04 10:29:02;;;;;;;0.90;0.70;;;16.00;99.90;;;;;;5049127;28;20526;-78
2024/02/04 10:31:28;;;;;;;1.07;0.60;;;15.00;99.90;;;;;;5050084;28;20569;-79
2024/02/04 10:33:56;;;;;;;0.90;0.70;;;15.10;99.90;;;;;;5045870;28;20470;-76
2024/02/04 10:36:23;;;;;;;0.90;0.80;;;15.60;99.90;;;;;;5043562;28;20562;-75
2024/02/04 10:38:49;;;;;;;1.73;0.70;;;16.40;99.90;;;;;;5046701;28;20479;-76
2024/02/04 10:41:18;;;;;;;0.80;0.67;;;15.70;99.90;;;;;;5044651;28;20468;-75
2024/02/04 10:43:46;;;;;;;0.80;0.60;;;14.40;99.90;;;;;;5042607;28;20621;-75
2024/02/04 10:46:18;;;;;;;0.80;0.70;;;13.50;99.90;;;;;;5044827;28;20464;-76
2024/02/04 10:48:56;;;;;;;1.20;0.70;;;12.50;99.90;;;;;;5045957;28;20905;-74
2024/02/04 10:51:26;;;;;;;0.97;0.73;;;12.30;99.90;;;;;;5045614;28;20569;-75
2024/02/04 10:53:55;;;;;;;0.80;0.60;;;12.20;99.90;;;;;;5045351;28;20466;-75
2024/02/04 10:56:26;;;;;;;0.80;0.60;;;12.30;99.90;;;;;;5045972;28;20951;-75
2024/02/04 10:58:56;;;;;;;0.80;0.60;;;12.60;99.90;;;;;;5045373;28;20227;-75
2024/02/04 11:01:23;;;;;;;0.90;0.70;;;12.90;99.90;;;;;;5046150;28;20204;-75
2024/02/04 11:03:52;;;;;;;1.20;0.75;;;13.20;99.90;;;;;;5045990;28;20212;-75
2024/02/04 11:06:21;;;;;;;0.70;0.60;;;12.80;99.90;;;;;;5046140;28;20215;-75
2024/02/04 11:08:48;;;;;;;0.80;0.70;;;12.50;99.90;;;;;;5045957;28;20240;-75
2024/02/04 11:11:15;;;;;;;0.80;0.70;;;12.90;99.90;;;;;;5046959;28;20229;-75
2024/02/04 11:13:46;;;;;;;0.90;0.70;;;15.00;99.90;;;;;;5048365;28;20466;-75
2024/02/04 11:16:28;;;;;;;0.90;0.70;;;17.40;99.90;;;;;;5046433;28;20465;-75
2024/02/04 11:19:09;;;;;;;0.80;0.67;;;19.30;99.90;;;;;;5043969;28;20484;-75
2024/02/04 11:22:23;;;;;;;0.80;0.63;;;20.40;99.90;;;;;;5041544;28;20459;-75
2024/02/04 11:25:10;;;;;;;0.90;0.70;;;21.80;98.00;;;;;;4958176;28;20510;-75
2024/02/04 11:27:37;;;;;;;1.27;0.70;;;22.90;96.50;;;;;;5049923;28;20467;-76
2024/02/04 11:30:05;;;;;;;1.00;0.80;;;23.30;95.90;;;;;;5052823;28;20463;-75
2024/02/04 11:32:36;;;;;;;0.80;0.63;;;23.50;94.80;;;;;;5056035;28;20552;-76
2024/02/04 11:35:07;;;;;;;0.80;0.77;;;22.60;95.20;;;;;;5069129;28;20497;-76
2024/02/04 11:37:34;;;;;;;0.87;0.70;;;22.40;95.50;;;;;;5050278;28;20525;-76
2024/02/04 11:40:04;;;;;;;0.90;0.70;;;22.20;95.40;;;;;;5065675;28;20466;-76
2024/02/04 11:42:33;;;;;;;0.87;0.67;;;22.30;95.30;;;;;;5069977;28;20840;-76
2024/02/04 11:45:09;;;;;;;0.80;0.60;;;22.60;95.10;;;;;;5062742;28;20464;-76
2024/02/04 11:47:38;;;;;;;0.80;0.70;;;22.80;94.40;;;;;;5051977;28;20472;-76
2024/02/04 11:50:06;;;;;;;0.90;0.67;;;22.80;94.40;;;;;;5050732;28;20521;-76
2024/02/04 11:52:33;;;;;;;0.80;0.70;;;22.60;94.20;;;;;;5053044;28;20840;-76
2024/02/04 11:55:00;;;;;;;0.80;0.60;;;21.80;94.80;;;;;;5051580;28;20470;-76
2024/02/04 11:57:27;;;;;;;0.93;0.80;;;21.00;95.60;;;;;;5051488;28;20466;-77
2024/02/04 11:59:55;;;;;;;0.90;0.70;;;20.60;95.80;;;;;;5051210;28;20471;-78
2024/02/04 12:02:22;;;;;;;0.90;0.80;;;20.40;96.30;;;;;;5051141;28;20459;-77
2024/02/04 12:04:51;;;;;;;1.17;1.07;;;19.50;97.20;;;;;;5052479;28;20471;-77
2024/02/04 12:07:18;;;;;;;1.03;0.90;;;18.90;97.70;;;;;;5050941;28;20487;-77
2024/02/04 12:09:46;;;;;;;0.80;0.60;;;18.00;98.10;;;;;;5052321;28;20509;-78
2024/02/04 12:12:13;;;;;;;0.80;0.60;;;17.30;99.20;;;;;;5050299;28;20484;-77
2024/02/04 12:14:40;;;;;;;0.90;0.70;;;17.00;99.60;;;;;;5053794;28;20456;-78
2024/02/04 12:17:09;;;;;;;1.43;0.70;;;16.90;99.80;;;;;;5051174;28;20473;-78
2024/02/04 12:19:36;;;;;;;0.80;0.80;;;16.50;99.90;;;;;;5053097;28;20533;-78
2024/02/04 12:22:09;;;;;;;0.80;0.70;;;16.20;99.90;;;;;;5051285;28;20471;-78
2024/02/04 12:24:36;;;;;;;0.80;0.60;;;16.10;99.90;;;;;;5052964;28;20479;-75
2024/02/04 12:27:04;;;;;;;0.90;0.80;;;16.20;99.90;;;;;;5051461;28;20517;-78
2024/02/04 12:29:30;;;;;;;0.80;0.70;;;15.50;99.90;;;;;;5053231;28;20529;-77
2024/02/04 12:32:00;;;;;;;0.80;0.70;;;15.20;99.90;;;;;;5052101;28;20852;-77
2024/02/04 12:34:27;;;;;;;1.00;0.80;;;15.00;99.90;;;;;;5038409;28;20465;-78
2024/02/04 12:36:59;;;;;;;0.80;0.67;;;14.70;99.90;;;;;;5048630;28;20460;-78
2024/02/04 12:39:28;;;;;;;4.57;0.80;;;14.80;99.90;;;;;;5036771;28;20542;-78
2024/02/04 12:41:55;;;;;;;0.80;0.60;;;15.10;99.90;;;;;;5052537;28;20452;-78
2024/02/04 12:44:22;;;;;;;0.80;0.63;;;15.30;99.90;;;;;;5052506;28;20466;-78
2024/02/04 12:46:52;;;;;;;0.90;0.70;;;15.20;99.90;;;;;;5053002;28;20573;-79
2024/02/04 12:49:21;;;;;;;0.87;0.73;;;15.40;99.90;;;;;;5051764;28;20484;-78
2024/02/04 12:51:48;;;;;;;0.80;0.70;;;15.40;99.90;;;;;;5052925;28;20533;-78
2024/02/04 12:54:16;;;;;;;0.80;0.70;;;15.50;99.90;;;;;;5052019;28;20455;-78
2024/02/04 12:56:47;;;;;;;0.90;0.80;;;15.60;99.90;;;;;;5052989;28;20456;-78
2024/02/04 12:59:24;;;;;;;0.80;0.70;;;16.00;99.90;;;;;;5052706;28;20846;-79